sensor_id;sensor_type;location;lat;lon;timestamp;temperature;humidity
37285;DHT22;23172;53.550;9.964;2023-01-24T00:04:35;5.70;97.50
37285;DHT22;23172;53.550;9.964;2023-01-24T00:09:38;5.70;97.60
37285;DHT22;23172;53.550;9.964;2023-01-24T00:14:40;5.70;97.50
37285;DHT22;23172;53.550;9.964;2023-01-24T00:19:42;5.70;97.60
37285;DHT22;23172;53.550;9.964;2023-01-24T00:24:45;5.70;97.60
37285;DHT22;23172;53.550;9.964;2023-01-24T00:29:48;5.80;98.00
37285;DHT22;23172;53.550;9.964;2023-01-24T00:34:50;5.70;97.50
37285;DHT22;23172;53.550;9.964;2023-01-24T00:39:53;5.80;97.60
37285;DHT22;23172;53.550;9.964;2023-01-24T00:44:55;5.70;97.50
37285;DHT22;23172;53.550;9.964;2023-01-24T00:49:57;5.70;97.60
37285;DHT22;23172;53.550;9.964;2023-01-24T00:55:00;5.70;97.70
37285;DHT22;23172;53.550;9.964;2023-01-24T01:00:03;5.70;97.70
37285;DHT22;23172;53.550;9.964;2023-01-24T01:05:05;5.70;97.60
37285;DHT22;23172;53.550;9.964;2023-01-24T01:10:10;5.70;97.50
37285;DHT22;23172;53.550;9.964;2023-01-24T01:15:12;5.70;97.60
37285;DHT22;23172;53.550;9.964;2023-01-24T01:20:14;5.70;97.60
37285;DHT22;23172;53.550;9.964;2023-01-24T01:25:17;5.60;97.50
37285;DHT22;23172;53.550;9.964;2023-01-24T01:30:19;5.60;97.50
37285;DHT22;23172;53.550;9.964;2023-01-24T01:35:21;5.60;97.40
37285;DHT22;23172;53.550;9.964;2023-01-24T01:40:24;5.60;97.40
37285;DHT22;23172;53.550;9.964;2023-01-24T01:45:39;5.60;97.50
37285;DHT22;23172;53.550;9.964;2023-01-24T01:50:44;5.60;97.40
37285;DHT22;23172;53.550;9.964;2023-01-24T01:55:51;5.60;97.50
37285;DHT22;23172;53.550;9.964;2023-01-24T02:00:56;5.60;97.50
37285;DHT22;23172;53.550;9.964;2023-01-24T02:05:58;5.50;97.50
37285;DHT22;23172;53.550;9.964;2023-01-24T02:11:03;5.50;97.50
37285;DHT22;23172;53.550;9.964;2023-01-24T02:16:23;5.60;97.60
37285;DHT22;23172;53.550;9.964;2023-01-24T02:21:24;5.60;97.50
37285;DHT22;23172;53.550;9.964;2023-01-24T02:26:28;5.50;97.50
37285;DHT22;23172;53.550;9.964;2023-01-24T02:31:55;5.60;97.50
37285;DHT22;23172;53.550;9.964;2023-01-24T02:36:58;5.60;97.50
37285;DHT22;23172;53.550;9.964;2023-01-24T02:42:04;5.50;97.50
37285;DHT22;23172;53.550;9.964;2023-01-24T02:47:08;5.50;97.60
37285;DHT22;23172;53.550;9.964;2023-01-24T02:52:10;5.40;97.60
37285;DHT22;23172;53.550;9.964;2023-01-24T02:57:30;5.50;97.60
37285;DHT22;23172;53.550;9.964;2023-01-24T03:02:50;5.50;97.50
37285;DHT22;23172;53.550;9.964;2023-01-24T03:07:52;5.50;97.50
37285;DHT22;23172;53.550;9.964;2023-01-24T03:12:54;5.50;97.50
37285;DHT22;23172;53.550;9.964;2023-01-24T03:18:15;5.50;97.50
37285;DHT22;23172;53.550;9.964;2023-01-24T03:23:34;5.50;97.50
37285;DHT22;23172;53.550;9.964;2023-01-24T03:28:53;5.40;97.50
37285;DHT22;23172;53.550;9.964;2023-01-24T03:34:13;5.50;97.40
37285;DHT22;23172;53.550;9.964;2023-01-24T03:39:30;5.50;97.40
37285;DHT22;23172;53.550;9.964;2023-01-24T03:44:50;5.50;97.40
37285;DHT22;23172;53.550;9.964;2023-01-24T03:49:53;5.50;97.30
37285;DHT22;23172;53.550;9.964;2023-01-24T03:55:12;5.50;97.30
37285;DHT22;23172;53.550;9.964;2023-01-24T04:00:15;5.50;97.30
37285;DHT22;23172;53.550;9.964;2023-01-24T04:05:18;5.50;97.20
37285;DHT22;23172;53.550;9.964;2023-01-24T04:10:21;5.60;96.90
37285;DHT22;23172;53.550;9.964;2023-01-24T04:15:24;5.50;96.80
37285;DHT22;23172;53.550;9.964;2023-01-24T04:20:29;5.60;96.70
37285;DHT22;23172;53.550;9.964;2023-01-24T04:25:31;5.60;96.60
37285;DHT22;23172;53.550;9.964;2023-01-24T04:30:33;5.60;96.50
37285;DHT22;23172;53.550;9.964;2023-01-24T04:35:36;5.50;96.20
37285;DHT22;23172;53.550;9.964;2023-01-24T04:40:39;5.50;96.10
37285;DHT22;23172;53.550;9.964;2023-01-24T04:45:41;5.50;96.00
37285;DHT22;23172;53.550;9.964;2023-01-24T04:50:45;5.50;96.00
37285;DHT22;23172;53.550;9.964;2023-01-24T04:55:46;5.50;95.80
37285;DHT22;23172;53.550;9.964;2023-01-24T05:00:48;5.50;95.70
37285;DHT22;23172;53.550;9.964;2023-01-24T05:05:52;5.50;95.50
37285;DHT22;23172;53.550;9.964;2023-01-24T05:10:54;5.50;95.50
37285;DHT22;23172;53.550;9.964;2023-01-24T05:15:56;5.50;95.40
37285;DHT22;23172;53.550;9.964;2023-01-24T05:21:05;5.50;95.20
37285;DHT22;23172;53.550;9.964;2023-01-24T05:26:07;5.40;94.70
37285;DHT22;23172;53.550;9.964;2023-01-24T05:31:09;5.40;94.80
37285;DHT22;23172;53.550;9.964;2023-01-24T05:36:14;5.40;94.50
37285;DHT22;23172;53.550;9.964;2023-01-24T05:41:18;5.40;94.60
37285;DHT22;23172;53.550;9.964;2023-01-24T05:46:21;5.40;94.50
37285;DHT22;23172;53.550;9.964;2023-01-24T05:51:25;5.40;94.30
37285;DHT22;23172;53.550;9.964;2023-01-24T05:56:26;5.40;94.30
37285;DHT22;23172;53.550;9.964;2023-01-24T06:01:29;5.40;94.00
37285;DHT22;23172;53.550;9.964;2023-01-24T06:06:32;5.40;94.10
37285;DHT22;23172;53.550;9.964;2023-01-24T06:11:34;5.40;93.90
37285;DHT22;23172;53.550;9.964;2023-01-24T06:16:36;5.40;93.90
37285;DHT22;23172;53.550;9.964;2023-01-24T06:21:45;5.40;93.80
37285;DHT22;23172;53.550;9.964;2023-01-24T06:26:48;5.40;93.80
37285;DHT22;23172;53.550;9.964;2023-01-24T06:32:01;5.40;93.70
37285;DHT22;23172;53.550;9.964;2023-01-24T06:37:11;5.40;93.70
37285;DHT22;23172;53.550;9.964;2023-01-24T06:42:16;5.40;93.70
37285;DHT22;23172;53.550;9.964;2023-01-24T06:47:18;5.50;93.60
37285;DHT22;23172;53.550;9.964;2023-01-24T06:52:21;5.40;93.50
37285;DHT22;23172;53.550;9.964;2023-01-24T06:57:23;5.40;93.50
37285;DHT22;23172;53.550;9.964;2023-01-24T07:02:25;5.40;93.40
37285;DHT22;23172;53.550;9.964;2023-01-24T07:07:28;5.40;93.40
37285;DHT22;23172;53.550;9.964;2023-01-24T07:12:30;5.40;93.30
37285;DHT22;23172;53.550;9.964;2023-01-24T07:17:32;5.40;93.40
37285;DHT22;23172;53.550;9.964;2023-01-24T07:22:37;5.40;93.30
37285;DHT22;23172;53.550;9.964;2023-01-24T07:27:39;5.40;93.20
37285;DHT22;23172;53.550;9.964;2023-01-24T07:32:41;5.30;93.10
37285;DHT22;23172;53.550;9.964;2023-01-24T07:37:44;5.40;93.30
37285;DHT22;23172;53.550;9.964;2023-01-24T07:42:46;5.40;93.20
37285;DHT22;23172;53.550;9.964;2023-01-24T07:47:49;5.40;93.10
37285;DHT22;23172;53.550;9.964;2023-01-24T07:52:53;5.40;93.10
37285;DHT22;23172;53.550;9.964;2023-01-24T07:57:58;5.40;93.10
37285;DHT22;23172;53.550;9.964;2023-01-24T08:03:01;5.40;93.00
37285;DHT22;23172;53.550;9.964;2023-01-24T08:08:04;5.40;93.10
37285;DHT22;23172;53.550;9.964;2023-01-24T08:13:06;5.40;93.10
37285;DHT22;23172;53.550;9.964;2023-01-24T08:18:08;5.40;93.10
37285;DHT22;23172;53.550;9.964;2023-01-24T08:23:11;5.50;93.10
37285;DHT22;23172;53.550;9.964;2023-01-24T08:28:13;5.50;92.90
37285;DHT22;23172;53.550;9.964;2023-01-24T08:33:15;5.40;92.80
37285;DHT22;23172;53.550;9.964;2023-01-24T08:38:20;5.40;92.90
37285;DHT22;23172;53.550;9.964;2023-01-24T08:43:23;5.40;93.00
37285;DHT22;23172;53.550;9.964;2023-01-24T08:48:27;5.40;92.90
37285;DHT22;23172;53.550;9.964;2023-01-24T08:53:30;5.40;92.80
37285;DHT22;23172;53.550;9.964;2023-01-24T08:58:32;5.40;92.80
37285;DHT22;23172;53.550;9.964;2023-01-24T09:03:35;5.40;92.80
37285;DHT22;23172;53.550;9.964;2023-01-24T09:08:39;5.50;92.80
37285;DHT22;23172;53.550;9.964;2023-01-24T09:13:41;5.50;92.70
37285;DHT22;23172;53.550;9.964;2023-01-24T09:18:43;5.40;92.70
37285;DHT22;23172;53.550;9.964;2023-01-24T09:23:46;5.50;92.70
37285;DHT22;23172;53.550;9.964;2023-01-24T09:28:48;5.50;92.70
37285;DHT22;23172;53.550;9.964;2023-01-24T09:33:50;5.50;92.60
37285;DHT22;23172;53.550;9.964;2023-01-24T09:38:53;5.50;92.60
37285;DHT22;23172;53.550;9.964;2023-01-24T09:43:58;5.50;92.50
37285;DHT22;23172;53.550;9.964;2023-01-24T09:49:09;5.50;92.60
37285;DHT22;23172;53.550;9.964;2023-01-24T09:54:24;5.50;92.60
37285;DHT22;23172;53.550;9.964;2023-01-24T09:59:35;5.60;92.50
37285;DHT22;23172;53.550;9.964;2023-01-24T10:04:38;5.60;92.40
37285;DHT22;23172;53.550;9.964;2023-01-24T10:09:51;5.60;92.40
37285;DHT22;23172;53.550;9.964;2023-01-24T10:15:04;5.60;92.20
37285;DHT22;23172;53.550;9.964;2023-01-24T10:20:27;5.50;92.20
37285;DHT22;23172;53.550;9.964;2023-01-24T10:25:40;5.40;92.20
37285;DHT22;23172;53.550;9.964;2023-01-24T10:30:49;5.40;92.30
37285;DHT22;23172;53.550;9.964;2023-01-24T10:35:56;5.40;92.30
37285;DHT22;23172;53.550;9.964;2023-01-24T10:41:18;5.40;92.30
37285;DHT22;23172;53.550;9.964;2023-01-24T10:52:10;5.50;92.00
37285;DHT22;23172;53.550;9.964;2023-01-24T10:57:29;5.50;92.10
37285;DHT22;23172;53.550;9.964;2023-01-24T11:02:32;5.50;92.00
37285;DHT22;23172;53.550;9.964;2023-01-24T11:07:36;5.60;92.00
37285;DHT22;23172;53.550;9.964;2023-01-24T11:12:47;5.50;91.90
37285;DHT22;23172;53.550;9.964;2023-01-24T11:17:56;5.60;91.90
37285;DHT22;23172;53.550;9.964;2023-01-24T11:23:03;5.60;91.90
37285;DHT22;23172;53.550;9.964;2023-01-24T11:28:22;5.70;91.80
37285;DHT22;23172;53.550;9.964;2023-01-24T11:33:38;5.60;91.60
37285;DHT22;23172;53.550;9.964;2023-01-24T11:38:43;5.60;91.70
37285;DHT22;23172;53.550;9.964;2023-01-24T11:49:41;5.60;91.70
37285;DHT22;23172;53.550;9.964;2023-01-24T11:54:53;5.60;91.40
37285;DHT22;23172;53.550;9.964;2023-01-24T12:00:08;5.50;91.60
37285;DHT22;23172;53.550;9.964;2023-01-24T12:05:36;5.40;91.50
37285;DHT22;23172;53.550;9.964;2023-01-24T12:10:52;5.50;91.60
37285;DHT22;23172;53.550;9.964;2023-01-24T12:16:03;5.50;91.60
37285;DHT22;23172;53.550;9.964;2023-01-24T12:21:06;5.60;91.50
37285;DHT22;23172;53.550;9.964;2023-01-24T12:26:13;5.60;91.50
37285;DHT22;23172;53.550;9.964;2023-01-24T12:31:24;5.60;91.40
37285;DHT22;23172;53.550;9.964;2023-01-24T12:36:38;5.70;91.40
37285;DHT22;23172;53.550;9.964;2023-01-24T12:41:42;5.70;91.30
37285;DHT22;23172;53.550;9.964;2023-01-24T12:46:59;5.70;91.60
37285;DHT22;23172;53.550;9.964;2023-01-24T12:52:07;5.70;91.10
37285;DHT22;23172;53.550;9.964;2023-01-24T12:57:16;5.70;91.20
37285;DHT22;23172;53.550;9.964;2023-01-24T13:02:36;5.60;91.10
37285;DHT22;23172;53.550;9.964;2023-01-24T13:07:49;5.50;91.10
37285;DHT22;23172;53.550;9.964;2023-01-24T13:12:57;5.50;91.30
37285;DHT22;23172;53.550;9.964;2023-01-24T13:18:11;5.40;91.30
37285;DHT22;23172;53.550;9.964;2023-01-24T13:23:26;5.40;91.30
37285;DHT22;23172;53.550;9.964;2023-01-24T13:28:36;5.40;91.40
37285;DHT22;23172;53.550;9.964;2023-01-24T13:33:45;5.30;91.30
37285;DHT22;23172;53.550;9.964;2023-01-24T13:38:49;5.30;91.40
37285;DHT22;23172;53.550;9.964;2023-01-24T13:43:56;5.30;91.50
37285;DHT22;23172;53.550;9.964;2023-01-24T13:49:03;5.30;91.60
37285;DHT22;23172;53.550;9.964;2023-01-24T13:54:12;5.30;91.60
37285;DHT22;23172;53.550;9.964;2023-01-24T13:59:17;5.30;91.60
37285;DHT22;23172;53.550;9.964;2023-01-24T14:04:37;5.30;91.60
37285;DHT22;23172;53.550;9.964;2023-01-24T14:09:40;5.20;91.50
37285;DHT22;23172;53.550;9.964;2023-01-24T14:15:03;5.20;91.60
37285;DHT22;23172;53.550;9.964;2023-01-24T14:20:36;5.20;91.60
37285;DHT22;23172;53.550;9.964;2023-01-24T14:25:48;5.00;92.00
37285;DHT22;23172;53.550;9.964;2023-01-24T14:30:54;5.10;91.80
37285;DHT22;23172;53.550;9.964;2023-01-24T14:36:07;5.00;91.80
37285;DHT22;23172;53.550;9.964;2023-01-24T14:41:19;5.00;91.80
37285;DHT22;23172;53.550;9.964;2023-01-24T14:46:23;5.00;91.90
37285;DHT22;23172;53.550;9.964;2023-01-24T14:51:26;4.90;91.90
37285;DHT22;23172;53.550;9.964;2023-01-24T14:56:38;4.90;92.00
37285;DHT22;23172;53.550;9.964;2023-01-24T15:01:40;4.90;92.10
37285;DHT22;23172;53.550;9.964;2023-01-24T15:06:44;4.90;92.10
37285;DHT22;23172;53.550;9.964;2023-01-24T15:11:46;4.90;92.20
37285;DHT22;23172;53.550;9.964;2023-01-24T15:16:50;4.80;92.20
37285;DHT22;23172;53.550;9.964;2023-01-24T15:21:55;4.80;92.30
37285;DHT22;23172;53.550;9.964;2023-01-24T15:26:59;4.80;92.30
37285;DHT22;23172;53.550;9.964;2023-01-24T15:32:01;4.80;92.40
37285;DHT22;23172;53.550;9.964;2023-01-24T15:37:04;4.90;92.50
37285;DHT22;23172;53.550;9.964;2023-01-24T15:42:13;5.00;92.40
37285;DHT22;23172;53.550;9.964;2023-01-24T15:47:33;4.90;92.40
37285;DHT22;23172;53.550;9.964;2023-01-24T15:53:17;4.80;92.40
37285;DHT22;23172;53.550;9.964;2023-01-24T15:58:20;4.80;92.50
37285;DHT22;23172;53.550;9.964;2023-01-24T16:03:22;4.90;92.50
37285;DHT22;23172;53.550;9.964;2023-01-24T16:08:26;4.90;92.40
37285;DHT22;23172;53.550;9.964;2023-01-24T16:13:31;4.90;92.40
37285;DHT22;23172;53.550;9.964;2023-01-24T16:18:34;4.90;92.60
37285;DHT22;23172;53.550;9.964;2023-01-24T16:23:37;4.90;92.40
37285;DHT22;23172;53.550;9.964;2023-01-24T16:28:39;4.80;92.50
37285;DHT22;23172;53.550;9.964;2023-01-24T16:33:41;4.70;92.60
37285;DHT22;23172;53.550;9.964;2023-01-24T16:38:46;4.70;92.70
37285;DHT22;23172;53.550;9.964;2023-01-24T16:43:48;4.60;92.70
37285;DHT22;23172;53.550;9.964;2023-01-24T16:48:50;4.70;92.80
37285;DHT22;23172;53.550;9.964;2023-01-24T16:53:54;4.70;92.80
37285;DHT22;23172;53.550;9.964;2023-01-24T16:58:56;4.60;92.70
37285;DHT22;23172;53.550;9.964;2023-01-24T17:03:58;4.50;92.80
37285;DHT22;23172;53.550;9.964;2023-01-24T17:09:01;4.50;92.90
37285;DHT22;23172;53.550;9.964;2023-01-24T17:14:05;4.90;92.90
37285;DHT22;23172;53.550;9.964;2023-01-24T17:19:07;4.80;92.90
37285;DHT22;23172;53.550;9.964;2023-01-24T17:24:10;4.60;93.00
37285;DHT22;23172;53.550;9.964;2023-01-24T17:29:12;4.60;93.10
37285;DHT22;23172;53.550;9.964;2023-01-24T17:34:14;4.50;93.10
37285;DHT22;23172;53.550;9.964;2023-01-24T17:39:18;4.40;93.10
37285;DHT22;23172;53.550;9.964;2023-01-24T17:44:20;4.40;93.20
37285;DHT22;23172;53.550;9.964;2023-01-24T17:49:23;4.40;93.20
37285;DHT22;23172;53.550;9.964;2023-01-24T17:54:26;4.30;93.20
37285;DHT22;23172;53.550;9.964;2023-01-24T17:59:28;4.30;93.30
37285;DHT22;23172;53.550;9.964;2023-01-24T18:04:29;4.20;93.30
37285;DHT22;23172;53.550;9.964;2023-01-24T18:09:33;4.10;93.40
37285;DHT22;23172;53.550;9.964;2023-01-24T18:14:35;4.10;93.50
37285;DHT22;23172;53.550;9.964;2023-01-24T18:19:39;4.10;93.60
37285;DHT22;23172;53.550;9.964;2023-01-24T18:24:42;4.10;94.00
37285;DHT22;23172;53.550;9.964;2023-01-24T18:29:44;4.10;93.70
37285;DHT22;23172;53.550;9.964;2023-01-24T18:34:45;4.10;93.80
37285;DHT22;23172;53.550;9.964;2023-01-24T18:39:50;4.10;93.90
37285;DHT22;23172;53.550;9.964;2023-01-24T18:44:52;4.10;93.90
37285;DHT22;23172;53.550;9.964;2023-01-24T18:49:53;4.10;94.00
37285;DHT22;23172;53.550;9.964;2023-01-24T18:54:57;4.10;94.00
37285;DHT22;23172;53.550;9.964;2023-01-24T18:59:58;4.10;94.00
37285;DHT22;23172;53.550;9.964;2023-01-24T19:05:00;4.10;94.10
37285;DHT22;23172;53.550;9.964;2023-01-24T19:10:08;4.10;94.00
37285;DHT22;23172;53.550;9.964;2023-01-24T19:15:11;4.10;94.10
37285;DHT22;23172;53.550;9.964;2023-01-24T19:20:12;4.00;94.10
37285;DHT22;23172;53.550;9.964;2023-01-24T19:25:16;4.00;94.20
37285;DHT22;23172;53.550;9.964;2023-01-24T19:30:18;4.00;94.20
37285;DHT22;23172;53.550;9.964;2023-01-24T19:35:19;4.00;94.20
37285;DHT22;23172;53.550;9.964;2023-01-24T19:40:23;4.00;94.40
37285;DHT22;23172;53.550;9.964;2023-01-24T19:45:24;4.00;94.30
37285;DHT22;23172;53.550;9.964;2023-01-24T19:50:26;4.00;94.30
37285;DHT22;23172;53.550;9.964;2023-01-24T19:55:29;4.00;94.30
37285;DHT22;23172;53.550;9.964;2023-01-24T20:00:33;4.10;94.30
37285;DHT22;23172;53.550;9.964;2023-01-24T20:05:36;4.00;94.40
37285;DHT22;23172;53.550;9.964;2023-01-24T20:10:40;4.00;94.40
37285;DHT22;23172;53.550;9.964;2023-01-24T20:15:42;4.10;94.40
37285;DHT22;23172;53.550;9.964;2023-01-24T20:20:48;4.10;94.40
37285;DHT22;23172;53.550;9.964;2023-01-24T20:25:51;4.20;94.40
37285;DHT22;23172;53.550;9.964;2023-01-24T20:30:53;4.20;94.30
37285;DHT22;23172;53.550;9.964;2023-01-24T20:35:59;4.20;94.40
37285;DHT22;23172;53.550;9.964;2023-01-24T20:41:05;4.20;94.40
37285;DHT22;23172;53.550;9.964;2023-01-24T20:46:09;4.20;94.30
37285;DHT22;23172;53.550;9.964;2023-01-24T20:51:12;4.30;94.30
37285;DHT22;23172;53.550;9.964;2023-01-24T20:56:16;4.20;94.20
37285;DHT22;23172;53.550;9.964;2023-01-24T21:01:24;4.20;94.20
37285;DHT22;23172;53.550;9.964;2023-01-24T21:06:26;4.20;94.20
37285;DHT22;23172;53.550;9.964;2023-01-24T21:11:31;4.10;94.30
37285;DHT22;23172;53.550;9.964;2023-01-24T21:16:34;4.10;94.30
37285;DHT22;23172;53.550;9.964;2023-01-24T21:21:36;4.10;94.40
37285;DHT22;23172;53.550;9.964;2023-01-24T21:26:40;4.20;94.40
37285;DHT22;23172;53.550;9.964;2023-01-24T21:31:42;4.20;94.40
37285;DHT22;23172;53.550;9.964;2023-01-24T21:36:44;4.10;94.30
37285;DHT22;23172;53.550;9.964;2023-01-24T21:41:47;4.10;94.40
37285;DHT22;23172;53.550;9.964;2023-01-24T21:47:01;4.10;94.40
37285;DHT22;23172;53.550;9.964;2023-01-24T21:52:03;4.10;94.40
37285;DHT22;23172;53.550;9.964;2023-01-24T21:57:08;4.00;94.50
37285;DHT22;23172;53.550;9.964;2023-01-24T22:02:29;4.00;94.50
37285;DHT22;23172;53.550;9.964;2023-01-24T22:07:32;4.00;94.50
37285;DHT22;23172;53.550;9.964;2023-01-24T22:12:35;4.00;94.50
37285;DHT22;23172;53.550;9.964;2023-01-24T22:17:37;4.00;94.60
37285;DHT22;23172;53.550;9.964;2023-01-24T22:22:51;3.80;94.70
37285;DHT22;23172;53.550;9.964;2023-01-24T22:27:59;3.80;94.70
37285;DHT22;23172;53.550;9.964;2023-01-24T22:33:01;3.80;94.80
37285;DHT22;23172;53.550;9.964;2023-01-24T22:38:03;3.90;94.70
37285;DHT22;23172;53.550;9.964;2023-01-24T22:43:06;3.90;94.70
37285;DHT22;23172;53.550;9.964;2023-01-24T22:48:12;3.80;94.70
37285;DHT22;23172;53.550;9.964;2023-01-24T22:53:15;3.80;94.70
37285;DHT22;23172;53.550;9.964;2023-01-24T22:58:18;3.80;94.80
37285;DHT22;23172;53.550;9.964;2023-01-24T23:03:20;3.80;94.80
37285;DHT22;23172;53.550;9.964;2023-01-24T23:08:21;3.80;94.80
37285;DHT22;23172;53.550;9.964;2023-01-24T23:13:25;3.80;94.70
37285;DHT22;23172;53.550;9.964;2023-01-24T23:18:44;3.90;94.70
37285;DHT22;23172;53.550;9.964;2023-01-24T23:24:04;3.80;94.50
37285;DHT22;23172;53.550;9.964;2023-01-24T23:29:33;3.80;94.70
37285;DHT22;23172;53.550;9.964;2023-01-24T23:34:39;3.90;94.70
37285;DHT22;23172;53.550;9.964;2023-01-24T23:39:41;3.90;94.70
37285;DHT22;23172;53.550;9.964;2023-01-24T23:44:45;3.80;94.60
37285;DHT22;23172;53.550;9.964;2023-01-24T23:49:47;3.70;95.00
37285;DHT22;23172;53.550;9.964;2023-01-24T23:54:50;3.70;95.00
37285;DHT22;23172;53.550;9.964;2023-01-24T23:59:53;3.60;94.60
